Fallon, NV

9:18 PM PDT on August 30, 2014 (GMT -0700)
North Fallon-Rice Rd | Change Station
CLOSE
Current Station
Personal Weather Station
Location: Fallon, NV
Elevation: 3980 ft
Nearby Weather Stations
Active Advisory: High Wind Advisory

Elev 3980 ft 39.50 °N, 118.78 °W | Updated 8 seconds ago

Clear
Clear
76.6 °F
Feels Like 76 °F
N
6.0
Wind Variable Wind from SW
Gusts 13.0 mph

Today
High -- | Low -- °F
--% Chance of Precip.
Yesterday
High -- | Low -- °F
Precip. -- in
6:21 AM 7:28 PM
Waxing Crescent, 27% visible
Pressure 29.85 in
Visibility 10.0 miles
Clouds Clear
Heat Index 76 °F
Dew Point 26 °F
Humidity 15%
Rainfall 0.00 in
Snow Depth Not available.
UV 0 out of 12
Pollen 9.00 out of 12
Air Quality Not available.
Flu Activity Not available.
METAR KNFL 310356Z AUTO VRB04KT 10SM CLR 25/M02 A2992 RMK AO2 SLP106 T02501022

More Conditions Fewer Conditions

Pressure 29.85 in
Visibility 10.0 miles
Clouds Clear
Heat Index 76 °F
Dew Point 26 °F
Humidity 15%
Rainfall 0.00 in
Snow Depth Not available.
UV 0 out of 12
Pollen 9.00 out of 12
Air Quality Not available.
Flu Activity Not available.
METAR KNFL 310356Z AUTO VRB04KT 10SM CLR 25/M02 A2992 RMK AO2 SLP106 T02501022

More Conditions Fewer Conditions

10-Day Weather Forecast

Almanac

Astronomy

Aug. 30, 2014 Rise Set
Actual Time 6:21 AM PDT 7:28 PM PDT
Civil Twilight 5:53 AM PDT 7:56 PM PDT
Nautical Twilight 5:20 AM PDT 8:29 PM PDT
Astronomical Twilight 4:46 AM PDT 9:03 PM PDT
Moon 11:12 AM PDT (8/30) 10:07 PM PDT (8/30)
Length of Visible Light 14h 02m
Length of Day
13h 07m
Tomorrow will be 2m 28s shorter.
Waxing Crescent, 27% of the Moon is Illuminated
Aug 31
Waxing Crescent
Sep 2
First Quarter
Sep 8
Full
Sep 15
Last Quarter
Sep 24
New

Today's Extremes

State Highs State Lows

Community

WunderPhotos

Upload Photos

1,748,779 photos uploaded!

Nearby

Snow Depth

Station Depth Elevation
Mt. Rose Ski Area 0 in 8850 ft
Big Creek Summit 1 in 8700 ft
Lamance Creek 1 in 6000 ft
Diamond Peak 0 in 8000 ft
Granite Peak 1 in 7800 ft

Earthquake Activity

City Distance Mag. Time & Date
No recent earthquake activity has been reported nearby.
Minimum magnitude displayed is 2.5.

Coastal Water Temperatures

Place Temperature
No Stations Reporting

Nearby Weather Stations